createdAt,value
2023-03-11T00:00:48.703Z,1.51
2023-03-11T00:04:53.250Z,1.46
2023-03-11T00:08:56.363Z,1.44
2023-03-11T00:12:59.899Z,1.40
2023-03-11T00:17:02.962Z,1.37
2023-03-11T00:21:16.081Z,1.37
2023-03-11T00:25:20.300Z,1.36
2023-03-11T00:29:23.442Z,1.34
2023-03-11T00:33:26.935Z,1.33
2023-03-11T00:37:31.472Z,1.34
2023-03-11T00:41:35.162Z,1.35
2023-03-11T00:45:38.404Z,1.31
2023-03-11T00:49:41.600Z,1.27
2023-03-11T00:53:46.226Z,1.27
2023-03-11T00:57:52.333Z,1.20
2023-03-11T01:01:55.522Z,1.14
2023-03-11T01:05:58.659Z,1.10
2023-03-11T01:10:03.257Z,1.03
2023-03-11T01:14:09.081Z,0.90
2023-03-11T01:18:12.512Z,0.70
2023-03-11T01:22:15.591Z,0.63
2023-03-11T01:26:20.126Z,0.54
2023-03-11T01:30:25.883Z,0.62
2023-03-11T01:34:29.010Z,0.64
2023-03-11T01:38:32.616Z,0.56
2023-03-11T01:42:37.442Z,0.50
2023-03-11T01:47:14.729Z,0.45
2023-03-11T01:51:24.926Z,0.46
2023-03-11T01:55:29.656Z,0.40
2023-03-11T01:59:38.989Z,0.35
2023-03-11T02:03:42.870Z,0.33
2023-03-11T02:07:46.591Z,0.34
2023-03-11T02:11:53.736Z,0.34
2023-03-11T02:16:00.759Z,0.23
2023-03-11T02:20:15.439Z,0.21
2023-03-11T02:24:25.499Z,0.17
2023-03-11T02:28:33.212Z,0.19
2023-03-11T02:32:36.730Z,0.13
2023-03-11T02:36:48.022Z,0.13
2023-03-11T02:40:56.714Z,0.12
2023-03-11T02:45:05.332Z,0.10
2023-03-11T02:49:09.462Z,0.10
2023-03-11T02:53:14.713Z,0.03
2023-03-11T02:57:18.154Z,0.01
2023-03-11T03:01:24.271Z,-0.03
2023-03-11T03:05:27.857Z,-0.11
2023-03-11T03:09:37.089Z,-0.13
2023-03-11T03:13:40.359Z,-0.18
2023-03-11T03:17:43.605Z,-0.16
2023-03-11T03:21:47.141Z,-0.16
2023-03-11T03:25:51.677Z,-0.22
2023-03-11T03:29:55.891Z,-0.20
2023-03-11T03:33:59.106Z,-0.23
2023-03-11T03:38:03.001Z,-0.30
2023-03-11T03:42:08.344Z,-0.33
2023-03-11T03:46:15.990Z,-0.38
2023-03-11T03:50:23.482Z,-0.40
2023-03-11T03:54:28.501Z,-0.38
2023-03-11T03:58:33.676Z,-0.48
2023-03-11T04:02:37.114Z,-0.54
2023-03-11T04:06:40.258Z,-0.46
2023-03-11T04:10:44.034Z,-0.55
2023-03-11T04:14:48.918Z,-0.59
2023-03-11T04:18:52.605Z,-0.58
2023-03-11T04:22:57.164Z,-0.67
2023-03-11T04:27:01.088Z,-0.57
2023-03-11T04:31:06.338Z,-0.63
2023-03-11T04:35:10.841Z,-0.60
2023-03-11T04:39:14.102Z,-0.61
2023-03-11T04:43:19.603Z,-0.53
2023-03-11T04:47:24.044Z,-0.50
2023-03-11T04:51:27.525Z,-0.42
2023-03-11T04:55:30.944Z,-0.37
2023-03-11T04:59:34.185Z,-0.35
2023-03-11T05:03:39.065Z,-0.33
2023-03-11T05:07:43.018Z,-0.36
2023-03-11T05:11:47.077Z,-0.31
2023-03-11T05:15:53.436Z,-0.32
2023-03-11T05:19:58.586Z,-0.27
2023-03-11T05:24:07.903Z,-0.22
2023-03-11T05:28:11.022Z,-0.23
2023-03-11T05:32:20.360Z,-0.20
2023-03-11T05:36:26.408Z,-0.22
2023-03-11T05:40:29.888Z,-0.25
2023-03-11T05:44:33.391Z,-0.27
2023-03-11T05:48:37.518Z,-0.43
2023-03-11T05:52:42.313Z,-0.64
2023-03-11T05:56:46.670Z,-0.67
2023-03-11T06:00:50.507Z,-0.76
2023-03-11T06:04:53.874Z,-0.81
2023-03-11T06:08:58.882Z,-0.77
2023-03-11T06:13:04.784Z,-0.83
2023-03-11T06:17:12.688Z,-0.81
2023-03-11T06:21:18.937Z,-0.94
2023-03-11T06:25:23.413Z,-0.89
2023-03-11T06:29:26.894Z,-0.82
2023-03-11T06:33:30.941Z,-0.76
2023-03-11T06:37:37.032Z,-0.74
2023-03-11T06:41:42.120Z,-0.76
2023-03-11T06:45:47.452Z,-0.77
2023-03-11T06:49:51.488Z,-0.72
2023-03-11T06:53:55.545Z,-0.63
2023-03-11T06:58:01.205Z,-0.62
2023-03-11T07:02:05.312Z,-0.52
2023-03-11T07:06:13.730Z,-0.48
2023-03-11T07:10:17.179Z,-0.41
2023-03-11T07:14:21.962Z,-0.38
2023-03-11T07:18:29.184Z,-0.21
2023-03-11T07:22:32.860Z,-0.07
2023-03-11T07:26:36.818Z,0.20
2023-03-11T07:30:41.991Z,0.52
2023-03-11T07:34:45.009Z,0.79
2023-03-11T07:38:48.769Z,1.20
2023-03-11T07:42:52.056Z,2.06
2023-03-11T07:46:58.460Z,3.48
2023-03-11T07:51:03.316Z,4.06
2023-03-11T07:55:07.231Z,4.44
2023-03-11T07:59:10.570Z,4.33
2023-03-11T08:03:15.165Z,4.57
2023-03-11T08:07:18.401Z,5.80
2023-03-11T08:11:23.078Z,5.31
2023-03-11T08:15:26.261Z,5.20
2023-03-11T08:19:30.915Z,5.42
2023-03-11T08:23:34.762Z,5.52
2023-03-11T08:27:39.138Z,5.71
2023-03-11T08:31:42.397Z,5.54
2023-03-11T08:35:46.958Z,6.06
2023-03-11T08:39:50.208Z,7.12
2023-03-11T08:43:53.377Z,4.64
2023-03-11T08:47:56.676Z,5.09
2023-03-11T08:52:02.383Z,6.16
2023-03-11T08:56:05.911Z,7.76
2023-03-11T09:00:12.702Z,8.38
2023-03-11T09:04:16.161Z,7.05
2023-03-11T09:08:20.798Z,7.00
2023-03-11T09:12:23.958Z,6.17
2023-03-11T09:16:27.161Z,6.31
2023-03-11T09:20:30.284Z,6.50
2023-03-11T09:24:36.730Z,7.62
2023-03-11T09:28:40.760Z,5.30
2023-03-11T09:32:43.933Z,7.16
2023-03-11T09:36:47.652Z,6.23
2023-03-11T09:41:01.677Z,8.10
2023-03-11T09:45:13.077Z,7.50
2023-03-11T09:49:23.728Z,7.19
2023-03-11T09:53:36.047Z,7.42
2023-03-11T09:57:40.727Z,7.63
2023-03-11T10:01:46.873Z,6.15
2023-03-11T10:05:51.513Z,7.28
2023-03-11T10:09:57.120Z,8.68
2023-03-11T10:14:12.700Z,5.94
2023-03-11T10:18:29.440Z,5.48
2023-03-11T10:22:39.296Z,5.03
2023-03-11T10:26:46.441Z,5.76
2023-03-11T10:30:55.634Z,6.18
2023-03-11T10:35:05.228Z,6.69
2023-03-11T10:39:11.880Z,7.15
2023-03-11T10:43:18.474Z,8.18
2023-03-11T10:47:25.389Z,7.63
2023-03-11T10:51:35.194Z,6.54
2023-03-11T10:55:47.640Z,6.22
2023-03-11T10:59:52.352Z,5.78
2023-03-11T11:03:59.507Z,5.51
2023-03-11T11:08:08.505Z,5.23
2023-03-11T11:12:15.927Z,5.06
2023-03-11T11:16:21.496Z,5.63
2023-03-11T11:20:27.584Z,5.60
2023-03-11T11:24:31.338Z,5.97
2023-03-11T11:28:35.446Z,7.06
2023-03-11T11:32:38.778Z,8.07
2023-03-11T11:36:43.280Z,6.52
2023-03-11T11:40:47.051Z,7.15
2023-03-11T11:44:55.335Z,8.19
2023-03-11T11:49:07.518Z,7.81
2023-03-11T11:53:26.145Z,7.02
2023-03-11T11:57:29.779Z,6.32
2023-03-11T12:01:41.499Z,6.83
2023-03-11T12:05:48.848Z,6.01
2023-03-11T12:10:12.990Z,6.44
2023-03-11T12:14:31.065Z,6.17
2023-03-11T12:18:39.135Z,6.92
2023-03-11T12:23:00.459Z,6.24
2023-03-11T12:27:16.544Z,6.90
2023-03-11T12:31:21.096Z,8.33
2023-03-11T12:35:27.722Z,8.73
2023-03-11T12:39:32.738Z,8.41
2023-03-11T12:44:03.528Z,10.02
2023-03-11T12:48:34.953Z,9.30
2023-03-11T12:52:54.269Z,9.01
2023-03-11T12:57:00.057Z,8.93
2023-03-11T13:01:46.767Z,9.16
2023-03-11T13:06:01.626Z,9.25
2023-03-11T13:10:13.482Z,8.39
2023-03-11T13:14:30.815Z,7.95
2023-03-11T13:18:34.130Z,9.60
2023-03-11T13:23:16.086Z,9.12
2023-03-11T13:27:40.301Z,9.80
2023-03-11T13:31:52.908Z,9.57
2023-03-11T13:36:07.381Z,8.59
2023-03-11T13:40:29.515Z,9.50
2023-03-11T13:44:36.362Z,9.17
2023-03-11T13:48:45.207Z,9.77
2023-03-11T13:52:50.463Z,11.28
2023-03-11T13:56:59.099Z,11.23
2023-03-11T14:01:03.633Z,9.57
2023-03-11T14:05:08.466Z,10.05
2023-03-11T14:09:20.468Z,11.17
2023-03-11T14:13:26.405Z,10.23
2023-03-11T14:17:29.530Z,10.90
2023-03-11T14:21:32.777Z,10.62
2023-03-11T14:25:38.478Z,11.64
2023-03-11T14:29:43.822Z,9.96
2023-03-11T14:33:56.161Z,10.88
2023-03-11T14:37:59.429Z,10.22
2023-03-11T14:42:13.750Z,11.58
2023-03-11T14:46:23.561Z,11.00
2023-03-11T14:50:27.852Z,11.67
2023-03-11T14:54:34.828Z,11.42
2023-03-11T14:58:41.499Z,11.22
2023-03-11T15:03:03.501Z,12.18
2023-03-11T15:07:07.220Z,10.06
2023-03-11T15:11:22.548Z,10.52
2023-03-11T15:15:27.940Z,11.57
2023-03-11T15:19:34.762Z,9.96
2023-03-11T15:23:38.041Z,10.31
2023-03-11T15:27:41.289Z,10.83
2023-03-11T15:31:46.768Z,11.95
2023-03-11T15:35:51.554Z,12.66
2023-03-11T15:39:59.514Z,9.15
2023-03-11T15:44:04.225Z,10.47
2023-03-11T15:48:07.438Z,9.28
2023-03-11T15:52:12.548Z,9.72
2023-03-11T15:56:23.418Z,8.62
2023-03-11T16:00:26.780Z,9.69
2023-03-11T16:04:30.280Z,11.80
2023-03-11T16:08:34.844Z,11.66
2023-03-11T16:12:39.274Z,9.64
2023-03-11T16:16:42.828Z,8.77
2023-03-11T16:20:48.891Z,8.59
2023-03-11T16:24:54.814Z,10.05
2023-03-11T16:29:06.143Z,12.11
2023-03-11T16:33:16.068Z,13.02
2023-03-11T16:37:21.474Z,11.63
2023-03-11T16:41:25.974Z,10.14
2023-03-11T16:45:29.286Z,9.14
2023-03-11T16:49:32.482Z,9.35
2023-03-11T16:53:35.573Z,9.39
2023-03-11T16:57:40.092Z,9.63
2023-03-11T17:01:43.583Z,8.08
2023-03-11T17:05:46.862Z,7.70
2023-03-11T17:09:50.009Z,6.63
2023-03-11T17:14:00.601Z,6.15
2023-03-11T17:18:09.550Z,5.73
2023-03-11T17:22:12.791Z,5.52
2023-03-11T17:26:18.162Z,5.26
2023-03-11T17:30:35.910Z,5.10
2023-03-11T17:34:39.341Z,4.99
2023-03-11T17:38:42.468Z,4.86
2023-03-11T17:42:45.634Z,4.61
2023-03-11T17:46:50.051Z,4.28
2023-03-11T17:50:53.183Z,4.03
2023-03-11T17:54:57.120Z,3.83
2023-03-11T17:59:00.492Z,3.54
2023-03-11T18:03:05.090Z,3.50
2023-03-11T18:07:08.500Z,3.31
2023-03-11T18:11:16.413Z,3.15
2023-03-11T18:15:22.761Z,3.03
2023-03-11T18:19:27.435Z,2.94
2023-03-11T18:23:33.145Z,2.79
2023-03-11T18:27:36.591Z,2.67
2023-03-11T18:31:40.715Z,2.67
2023-03-11T18:35:45.920Z,2.67
2023-03-11T18:39:48.937Z,2.47
2023-03-11T18:43:53.383Z,2.26
2023-03-11T18:47:56.513Z,2.15
2023-03-11T18:52:01.092Z,2.31
2023-03-11T18:56:11.963Z,2.21
2023-03-11T19:00:16.736Z,2.25
2023-03-11T19:04:19.928Z,2.10
2023-03-11T19:08:26.818Z,2.01
2023-03-11T19:12:32.526Z,1.88
2023-03-11T19:16:35.700Z,1.86
2023-03-11T19:20:39.117Z,1.69
2023-03-11T19:24:43.743Z,1.58
2023-03-11T19:28:47.607Z,1.46
2023-03-11T19:32:52.999Z,1.56
2023-03-11T19:36:56.179Z,1.37
2023-03-11T19:41:06.074Z,1.17
2023-03-11T19:45:09.949Z,1.14
2023-03-11T19:49:13.035Z,1.03
2023-03-11T19:53:16.968Z,1.05
2023-03-11T19:57:21.395Z,1.09
2023-03-11T20:01:25.351Z,1.22
2023-03-11T20:05:28.402Z,1.21
2023-03-11T20:09:32.746Z,1.14
2023-03-11T20:13:38.304Z,1.13
2023-03-11T20:17:41.566Z,1.21
2023-03-11T20:21:45.956Z,1.20
2023-03-11T20:25:49.318Z,1.19
2023-03-11T20:29:53.970Z,1.21
2023-03-11T20:33:58.266Z,1.23
2023-03-11T20:38:02.873Z,1.26
2023-03-11T20:42:06.515Z,1.25
2023-03-11T20:46:13.206Z,1.38
2023-03-11T20:50:16.868Z,1.36
2023-03-11T20:54:20.234Z,1.30
2023-03-11T20:58:23.719Z,1.44
2023-03-11T21:02:30.679Z,1.47
2023-03-11T21:06:36.066Z,1.59
2023-03-11T21:10:39.240Z,1.69
2023-03-11T21:14:42.576Z,1.71
2023-03-11T21:18:49.431Z,1.68
2023-03-11T21:22:53.033Z,1.59
2023-03-11T21:26:56.219Z,1.64
2023-03-11T21:31:00.653Z,1.58
2023-03-11T21:35:05.966Z,1.60
2023-03-11T21:39:09.256Z,1.65
2023-03-11T21:43:12.333Z,1.73
2023-03-11T21:47:15.614Z,1.78
2023-03-11T21:51:21.262Z,1.81
2023-03-11T21:55:24.497Z,1.82
2023-03-11T21:59:27.650Z,1.89
2023-03-11T22:03:35.384Z,1.84
2023-03-11T22:07:40.143Z,1.97
2023-03-11T22:11:43.865Z,2.02
2023-03-11T22:15:46.953Z,2.17
2023-03-11T22:19:50.173Z,2.21
2023-03-11T22:23:54.635Z,2.31
2023-03-11T22:27:57.698Z,2.36
2023-03-11T22:32:00.782Z,2.40
2023-03-11T22:36:04.852Z,2.41
2023-03-11T22:40:11.472Z,2.40
2023-03-11T22:44:14.468Z,2.40
2023-03-11T22:48:17.512Z,2.37
2023-03-11T22:52:20.552Z,2.35
2023-03-11T22:56:25.073Z,2.38
2023-03-11T23:00:28.136Z,2.45
2023-03-11T23:04:31.175Z,2.42
2023-03-11T23:08:34.297Z,2.49
2023-03-11T23:12:38.683Z,2.37
2023-03-11T23:16:42.391Z,2.38
2023-03-11T23:20:46.156Z,2.33
2023-03-11T23:24:49.262Z,2.30
2023-03-11T23:28:54.639Z,2.35
2023-03-11T23:32:57.860Z,2.40
2023-03-11T23:37:01.366Z,2.39
2023-03-11T23:41:07.551Z,2.36
2023-03-11T23:45:12.547Z,2.36
2023-03-11T23:49:15.564Z,2.37
2023-03-11T23:53:21.402Z,2.42
2023-03-11T23:57:24.449Z,2.40
